sensor_id;sensor_type;location;lat;lon;timestamp;P1;durP1;ratioP1;P2;durP2;ratioP2
77298;SDS011;66361;52.034;20.656;2023-03-01T00:02:53;41.08;;;22.20;;
77298;SDS011;66361;52.034;20.656;2023-03-01T00:06:59;48.65;;;23.02;;
77298;SDS011;66361;52.034;20.656;2023-03-01T00:11:06;49.10;;;24.42;;
77298;SDS011;66361;52.034;20.656;2023-03-01T00:15:13;42.20;;;20.10;;
77298;SDS011;66361;52.034;20.656;2023-03-01T00:19:17;42.65;;;20.17;;
77298;SDS011;66361;52.034;20.656;2023-03-01T00:23:27;46.15;;;21.27;;
77298;SDS011;66361;52.034;20.656;2023-03-01T00:27:31;52.25;;;23.40;;
77298;SDS011;66361;52.034;20.656;2023-03-01T00:31:35;57.78;;;20.65;;
77298;SDS011;66361;52.034;20.656;2023-03-01T00:35:39;47.85;;;21.20;;
77298;SDS011;66361;52.034;20.656;2023-03-01T00:39:45;41.53;;;20.13;;
77298;SDS011;66361;52.034;20.656;2023-03-01T00:43:48;42.80;;;20.80;;
77298;SDS011;66361;52.034;20.656;2023-03-01T00:47:52;50.55;;;22.75;;
77298;SDS011;66361;52.034;20.656;2023-03-01T00:51:56;37.92;;;19.02;;
77298;SDS011;66361;52.034;20.656;2023-03-01T00:56:01;54.28;;;23.40;;
77298;SDS011;66361;52.034;20.656;2023-03-01T01:00:05;47.60;;;22.48;;
77298;SDS011;66361;52.034;20.656;2023-03-01T01:04:11;49.85;;;21.65;;
77298;SDS011;66361;52.034;20.656;2023-03-01T01:08:15;44.70;;;21.17;;
77298;SDS011;66361;52.034;20.656;2023-03-01T01:12:20;17.17;;;12.65;;
77298;SDS011;66361;52.034;20.656;2023-03-01T01:16:26;39.92;;;16.58;;
77298;SDS011;66361;52.034;20.656;2023-03-01T01:20:32;44.28;;;19.45;;
77298;SDS011;66361;52.034;20.656;2023-03-01T01:24:35;35.92;;;18.30;;
77298;SDS011;66361;52.034;20.656;2023-03-01T01:28:40;40.92;;;19.10;;
77298;SDS011;66361;52.034;20.656;2023-03-01T01:32:44;38.95;;;18.73;;
77298;SDS011;66361;52.034;20.656;2023-03-01T01:36:47;38.20;;;19.00;;
77298;SDS011;66361;52.034;20.656;2023-03-01T01:40:52;34.03;;;19.77;;
77298;SDS011;66361;52.034;20.656;2023-03-01T01:49:39;37.25;;;18.25;;
77298;SDS011;66361;52.034;20.656;2023-03-01T01:53:45;41.55;;;18.70;;
77298;SDS011;66361;52.034;20.656;2023-03-01T01:57:54;42.28;;;21.05;;
77298;SDS011;66361;52.034;20.656;2023-03-01T02:02:00;45.67;;;19.90;;
77298;SDS011;66361;52.034;20.656;2023-03-01T02:06:10;48.80;;;19.58;;
77298;SDS011;66361;52.034;20.656;2023-03-01T02:10:19;36.67;;;19.60;;
77298;SDS011;66361;52.034;20.656;2023-03-01T02:14:23;43.20;;;20.63;;
77298;SDS011;66361;52.034;20.656;2023-03-01T02:18:27;33.45;;;15.82;;
77298;SDS011;66361;52.034;20.656;2023-03-01T02:22:32;38.05;;;16.33;;
77298;SDS011;66361;52.034;20.656;2023-03-01T02:26:44;36.90;;;17.02;;
77298;SDS011;66361;52.034;20.656;2023-03-01T02:30:52;41.72;;;16.75;;
77298;SDS011;66361;52.034;20.656;2023-03-01T02:35:14;43.63;;;18.23;;
77298;SDS011;66361;52.034;20.656;2023-03-01T02:39:21;28.50;;;15.23;;
77298;SDS011;66361;52.034;20.656;2023-03-01T02:43:29;36.65;;;16.92;;
77298;SDS011;66361;52.034;20.656;2023-03-01T02:47:36;33.85;;;17.58;;
77298;SDS011;66361;52.034;20.656;2023-03-01T02:51:42;37.17;;;17.80;;
77298;SDS011;66361;52.034;20.656;2023-03-01T02:55:53;41.50;;;18.02;;
77298;SDS011;66361;52.034;20.656;2023-03-01T02:59:57;37.97;;;17.50;;
77298;SDS011;66361;52.034;20.656;2023-03-01T03:04:10;35.17;;;16.58;;
77298;SDS011;66361;52.034;20.656;2023-03-01T03:08:17;35.47;;;18.15;;
77298;SDS011;66361;52.034;20.656;2023-03-01T03:12:25;39.17;;;19.55;;
77298;SDS011;66361;52.034;20.656;2023-03-01T03:16:28;44.45;;;20.58;;
77298;SDS011;66361;52.034;20.656;2023-03-01T03:20:33;32.13;;;16.08;;
77298;SDS011;66361;52.034;20.656;2023-03-01T03:24:39;39.88;;;18.02;;
77298;SDS011;66361;52.034;20.656;2023-03-01T03:28:41;39.58;;;17.48;;
77298;SDS011;66361;52.034;20.656;2023-03-01T03:32:45;25.77;;;15.95;;
77298;SDS011;66361;52.034;20.656;2023-03-01T03:36:56;38.25;;;15.98;;
77298;SDS011;66361;52.034;20.656;2023-03-01T03:41:01;33.97;;;16.27;;
77298;SDS011;66361;52.034;20.656;2023-03-01T03:45:06;44.17;;;16.67;;
77298;SDS011;66361;52.034;20.656;2023-03-01T03:49:10;37.63;;;18.48;;
77298;SDS011;66361;52.034;20.656;2023-03-01T03:53:14;39.85;;;18.88;;
77298;SDS011;66361;52.034;20.656;2023-03-01T04:01:20;34.28;;;18.13;;
77298;SDS011;66361;52.034;20.656;2023-03-01T04:05:23;30.73;;;16.33;;
77298;SDS011;66361;52.034;20.656;2023-03-01T04:09:30;35.83;;;16.45;;
77298;SDS011;66361;52.034;20.656;2023-03-01T04:13:33;38.88;;;18.17;;
77298;SDS011;66361;52.034;20.656;2023-03-01T04:17:38;35.80;;;15.90;;
77298;SDS011;66361;52.034;20.656;2023-03-01T04:21:42;39.40;;;18.73;;
77298;SDS011;66361;52.034;20.656;2023-03-01T04:25:48;36.63;;;16.17;;
77298;SDS011;66361;52.034;20.656;2023-03-01T04:29:54;32.15;;;16.10;;
77298;SDS011;66361;52.034;20.656;2023-03-01T04:34:00;40.45;;;17.27;;
77298;SDS011;66361;52.034;20.656;2023-03-01T04:38:03;28.95;;;13.70;;
77298;SDS011;66361;52.034;20.656;2023-03-01T04:42:08;24.10;;;13.98;;
77298;SDS011;66361;52.034;20.656;2023-03-01T04:46:12;27.95;;;13.70;;
77298;SDS011;66361;52.034;20.656;2023-03-01T04:50:17;33.67;;;14.68;;
77298;SDS011;66361;52.034;20.656;2023-03-01T04:54:24;27.98;;;13.15;;
77298;SDS011;66361;52.034;20.656;2023-03-01T04:58:29;34.58;;;15.90;;
77298;SDS011;66361;52.034;20.656;2023-03-01T05:02:32;30.42;;;12.98;;
77298;SDS011;66361;52.034;20.656;2023-03-01T05:06:37;26.75;;;12.60;;
77298;SDS011;66361;52.034;20.656;2023-03-01T05:10:40;36.63;;;13.93;;
77298;SDS011;66361;52.034;20.656;2023-03-01T05:14:45;37.58;;;15.25;;
77298;SDS011;66361;52.034;20.656;2023-03-01T05:18:48;34.80;;;15.48;;
77298;SDS011;66361;52.034;20.656;2023-03-01T05:22:56;32.25;;;14.18;;
77298;SDS011;66361;52.034;20.656;2023-03-01T05:27:06;33.47;;;13.95;;
77298;SDS011;66361;52.034;20.656;2023-03-01T05:31:11;30.70;;;15.13;;
77298;SDS011;66361;52.034;20.656;2023-03-01T05:35:15;33.90;;;15.70;;
77298;SDS011;66361;52.034;20.656;2023-03-01T05:39:20;26.67;;;13.13;;
77298;SDS011;66361;52.034;20.656;2023-03-01T05:43:25;33.83;;;17.25;;
77298;SDS011;66361;52.034;20.656;2023-03-01T05:47:31;30.15;;;15.07;;
77298;SDS011;66361;52.034;20.656;2023-03-01T05:51:34;30.55;;;14.73;;
77298;SDS011;66361;52.034;20.656;2023-03-01T05:55:38;39.17;;;16.73;;
77298;SDS011;66361;52.034;20.656;2023-03-01T05:59:42;32.67;;;15.35;;
77298;SDS011;66361;52.034;20.656;2023-03-01T06:03:47;30.05;;;15.15;;
77298;SDS011;66361;52.034;20.656;2023-03-01T06:07:50;29.27;;;13.13;;
77298;SDS011;66361;52.034;20.656;2023-03-01T06:24:04;26.35;;;12.45;;
77298;SDS011;66361;52.034;20.656;2023-03-01T06:28:09;28.80;;;13.35;;
77298;SDS011;66361;52.034;20.656;2023-03-01T06:32:12;22.02;;;12.65;;
77298;SDS011;66361;52.034;20.656;2023-03-01T06:36:19;28.67;;;13.85;;
77298;SDS011;66361;52.034;20.656;2023-03-01T06:40:23;25.02;;;14.07;;
77298;SDS011;66361;52.034;20.656;2023-03-01T06:44:26;26.98;;;13.90;;
77298;SDS011;66361;52.034;20.656;2023-03-01T06:48:30;25.98;;;14.65;;
77298;SDS011;66361;52.034;20.656;2023-03-01T06:52:35;28.63;;;14.07;;
77298;SDS011;66361;52.034;20.656;2023-03-01T06:56:39;30.27;;;13.90;;
77298;SDS011;66361;52.034;20.656;2023-03-01T07:00:42;29.08;;;14.52;;
77298;SDS011;66361;52.034;20.656;2023-03-01T07:04:45;29.10;;;15.48;;
77298;SDS011;66361;52.034;20.656;2023-03-01T07:08:51;23.08;;;12.55;;
77298;SDS011;66361;52.034;20.656;2023-03-01T07:12:56;26.52;;;14.98;;
77298;SDS011;66361;52.034;20.656;2023-03-01T07:17:02;28.08;;;13.63;;
77298;SDS011;66361;52.034;20.656;2023-03-01T07:25:10;26.92;;;14.05;;
77298;SDS011;66361;52.034;20.656;2023-03-01T07:29:13;29.85;;;15.55;;
77298;SDS011;66361;52.034;20.656;2023-03-01T07:33:16;25.70;;;14.77;;
77298;SDS011;66361;52.034;20.656;2023-03-01T07:37:19;31.88;;;14.85;;
77298;SDS011;66361;52.034;20.656;2023-03-01T07:41:24;26.75;;;14.70;;
77298;SDS011;66361;52.034;20.656;2023-03-01T07:45:27;29.48;;;15.63;;
77298;SDS011;66361;52.034;20.656;2023-03-01T07:49:31;29.05;;;16.05;;
77298;SDS011;66361;52.034;20.656;2023-03-01T07:57:38;26.90;;;14.90;;
77298;SDS011;66361;52.034;20.656;2023-03-01T08:01:41;26.00;;;16.45;;
77298;SDS011;66361;52.034;20.656;2023-03-01T08:05:49;27.17;;;14.05;;
77298;SDS011;66361;52.034;20.656;2023-03-01T08:09:51;21.45;;;14.02;;
77298;SDS011;66361;52.034;20.656;2023-03-01T08:13:56;25.42;;;12.82;;
77298;SDS011;66361;52.034;20.656;2023-03-01T08:17:59;23.75;;;14.25;;
77298;SDS011;66361;52.034;20.656;2023-03-01T08:22:03;25.95;;;14.93;;
77298;SDS011;66361;52.034;20.656;2023-03-01T08:26:08;22.40;;;13.75;;
77298;SDS011;66361;52.034;20.656;2023-03-01T08:30:14;25.35;;;13.77;;
77298;SDS011;66361;52.034;20.656;2023-03-01T08:34:18;18.65;;;11.73;;
77298;SDS011;66361;52.034;20.656;2023-03-01T08:38:22;11.55;;;8.45;;
77298;SDS011;66361;52.034;20.656;2023-03-01T08:42:25;22.70;;;13.23;;
77298;SDS011;66361;52.034;20.656;2023-03-01T08:46:33;19.23;;;12.45;;
77298;SDS011;66361;52.034;20.656;2023-03-01T08:50:38;16.30;;;10.50;;
77298;SDS011;66361;52.034;20.656;2023-03-01T08:54:42;17.17;;;10.88;;
77298;SDS011;66361;52.034;20.656;2023-03-01T08:58:45;16.13;;;10.50;;
77298;SDS011;66361;52.034;20.656;2023-03-01T09:02:52;17.85;;;12.63;;
77298;SDS011;66361;52.034;20.656;2023-03-01T09:06:55;17.95;;;12.10;;
77298;SDS011;66361;52.034;20.656;2023-03-01T09:10:58;14.15;;;9.25;;
77298;SDS011;66361;52.034;20.656;2023-03-01T09:15:06;17.92;;;10.70;;
77298;SDS011;66361;52.034;20.656;2023-03-01T09:19:11;14.93;;;9.60;;
77298;SDS011;66361;52.034;20.656;2023-03-01T09:23:17;15.32;;;9.38;;
77298;SDS011;66361;52.034;20.656;2023-03-01T09:27:22;14.73;;;8.18;;
77298;SDS011;66361;52.034;20.656;2023-03-01T09:31:26;11.45;;;6.93;;
77298;SDS011;66361;52.034;20.656;2023-03-01T09:35:30;11.50;;;6.47;;
77298;SDS011;66361;52.034;20.656;2023-03-01T09:39:33;10.30;;;6.80;;
77298;SDS011;66361;52.034;20.656;2023-03-01T09:43:39;12.93;;;7.25;;
77298;SDS011;66361;52.034;20.656;2023-03-01T09:47:48;9.73;;;6.80;;
77298;SDS011;66361;52.034;20.656;2023-03-01T09:51:57;11.88;;;7.35;;
77298;SDS011;66361;52.034;20.656;2023-03-01T09:56:03;12.00;;;7.88;;
77298;SDS011;66361;52.034;20.656;2023-03-01T10:00:16;14.75;;;7.50;;
77298;SDS011;66361;52.034;20.656;2023-03-01T10:04:27;13.02;;;7.50;;
77298;SDS011;66361;52.034;20.656;2023-03-01T10:08:46;11.82;;;7.10;;
77298;SDS011;66361;52.034;20.656;2023-03-01T10:12:55;16.02;;;9.40;;
77298;SDS011;66361;52.034;20.656;2023-03-01T10:17:00;13.65;;;8.27;;
77298;SDS011;66361;52.034;20.656;2023-03-01T10:21:13;16.42;;;8.68;;
77298;SDS011;66361;52.034;20.656;2023-03-01T10:25:23;13.57;;;8.45;;
77298;SDS011;66361;52.034;20.656;2023-03-01T10:29:46;16.88;;;9.45;;
77298;SDS011;66361;52.034;20.656;2023-03-01T10:33:57;12.77;;;8.48;;
77298;SDS011;66361;52.034;20.656;2023-03-01T10:38:03;13.32;;;8.23;;
77298;SDS011;66361;52.034;20.656;2023-03-01T10:42:19;17.70;;;9.70;;
77298;SDS011;66361;52.034;20.656;2023-03-01T10:46:26;17.67;;;9.43;;
77298;SDS011;66361;52.034;20.656;2023-03-01T10:50:31;17.08;;;8.40;;
77298;SDS011;66361;52.034;20.656;2023-03-01T10:54:34;13.73;;;8.75;;
77298;SDS011;66361;52.034;20.656;2023-03-01T10:58:39;18.80;;;9.65;;
77298;SDS011;66361;52.034;20.656;2023-03-01T11:02:45;17.55;;;9.43;;
77298;SDS011;66361;52.034;20.656;2023-03-01T11:06:57;15.80;;;9.15;;
77298;SDS011;66361;52.034;20.656;2023-03-01T11:11:17;12.90;;;7.95;;
77298;SDS011;66361;52.034;20.656;2023-03-01T11:15:28;16.80;;;9.43;;
77298;SDS011;66361;52.034;20.656;2023-03-01T11:19:32;17.90;;;9.25;;
77298;SDS011;66361;52.034;20.656;2023-03-01T11:23:44;13.00;;;7.78;;
77298;SDS011;66361;52.034;20.656;2023-03-01T11:27:51;9.30;;;5.28;;
77298;SDS011;66361;52.034;20.656;2023-03-01T11:32:01;13.50;;;7.03;;
77298;SDS011;66361;52.034;20.656;2023-03-01T11:36:08;13.65;;;6.38;;
77298;SDS011;66361;52.034;20.656;2023-03-01T11:40:21;15.23;;;7.63;;
77298;SDS011;66361;52.034;20.656;2023-03-01T11:44:29;13.15;;;6.68;;
77298;SDS011;66361;52.034;20.656;2023-03-01T11:48:44;10.77;;;5.53;;
77298;SDS011;66361;52.034;20.656;2023-03-01T11:52:55;6.70;;;4.38;;
77298;SDS011;66361;52.034;20.656;2023-03-01T11:57:08;10.20;;;6.00;;
77298;SDS011;66361;52.034;20.656;2023-03-01T12:01:25;9.20;;;4.45;;
77298;SDS011;66361;52.034;20.656;2023-03-01T12:05:49;8.50;;;5.32;;
77298;SDS011;66361;52.034;20.656;2023-03-01T12:10:17;11.80;;;5.70;;
77298;SDS011;66361;52.034;20.656;2023-03-01T12:14:40;9.90;;;5.32;;
77298;SDS011;66361;52.034;20.656;2023-03-01T12:19:03;10.98;;;5.70;;
77298;SDS011;66361;52.034;20.656;2023-03-01T12:23:28;9.80;;;5.10;;
77298;SDS011;66361;52.034;20.656;2023-03-01T12:32:13;11.60;;;5.80;;
77298;SDS011;66361;52.034;20.656;2023-03-01T12:36:31;11.07;;;5.80;;
77298;SDS011;66361;52.034;20.656;2023-03-01T12:45:53;17.02;;;7.55;;
77298;SDS011;66361;52.034;20.656;2023-03-01T12:50:11;10.77;;;6.57;;
77298;SDS011;66361;52.034;20.656;2023-03-01T12:54:20;12.25;;;6.72;;
77298;SDS011;66361;52.034;20.656;2023-03-01T12:58:30;12.93;;;6.30;;
77298;SDS011;66361;52.034;20.656;2023-03-01T13:02:52;7.70;;;5.35;;
77298;SDS011;66361;52.034;20.656;2023-03-01T13:07:19;18.45;;;7.82;;
77298;SDS011;66361;52.034;20.656;2023-03-01T13:11:28;12.70;;;7.85;;
77298;SDS011;66361;52.034;20.656;2023-03-01T13:19:40;16.63;;;10.18;;
77298;SDS011;66361;52.034;20.656;2023-03-01T13:23:59;15.23;;;10.23;;
77298;SDS011;66361;52.034;20.656;2023-03-01T13:32:42;16.13;;;8.93;;
77298;SDS011;66361;52.034;20.656;2023-03-01T13:36:49;20.13;;;10.68;;
77298;SDS011;66361;52.034;20.656;2023-03-01T13:40:58;21.75;;;10.68;;
77298;SDS011;66361;52.034;20.656;2023-03-01T13:45:15;21.17;;;9.25;;
77298;SDS011;66361;52.034;20.656;2023-03-01T13:49:22;16.88;;;10.23;;
77298;SDS011;66361;52.034;20.656;2023-03-01T13:53:43;13.32;;;7.78;;
77298;SDS011;66361;52.034;20.656;2023-03-01T13:57:49;17.17;;;10.65;;
77298;SDS011;66361;52.034;20.656;2023-03-01T14:01:57;14.32;;;8.38;;
77298;SDS011;66361;52.034;20.656;2023-03-01T14:06:03;18.98;;;9.13;;
77298;SDS011;66361;52.034;20.656;2023-03-01T14:10:18;14.80;;;7.68;;
77298;SDS011;66361;52.034;20.656;2023-03-01T14:14:29;17.98;;;9.25;;
77298;SDS011;66361;52.034;20.656;2023-03-01T14:18:43;16.13;;;9.55;;
77298;SDS011;66361;52.034;20.656;2023-03-01T14:22:54;16.77;;;9.50;;
77298;SDS011;66361;52.034;20.656;2023-03-01T14:27:01;18.65;;;9.55;;
77298;SDS011;66361;52.034;20.656;2023-03-01T14:35:56;17.85;;;9.63;;
77298;SDS011;66361;52.034;20.656;2023-03-01T14:40:02;17.05;;;9.57;;
77298;SDS011;66361;52.034;20.656;2023-03-01T14:44:12;19.33;;;10.57;;
77298;SDS011;66361;52.034;20.656;2023-03-01T14:48:22;16.00;;;8.35;;
77298;SDS011;66361;52.034;20.656;2023-03-01T14:52:28;15.52;;;8.57;;
77298;SDS011;66361;52.034;20.656;2023-03-01T14:56:46;15.15;;;8.93;;
77298;SDS011;66361;52.034;20.656;2023-03-01T15:00:52;16.38;;;8.27;;
77298;SDS011;66361;52.034;20.656;2023-03-01T15:04:58;15.27;;;8.57;;
77298;SDS011;66361;52.034;20.656;2023-03-01T15:09:13;22.48;;;9.82;;
77298;SDS011;66361;52.034;20.656;2023-03-01T15:13:21;19.98;;;8.43;;
77298;SDS011;66361;52.034;20.656;2023-03-01T15:17:28;19.65;;;9.18;;
77298;SDS011;66361;52.034;20.656;2023-03-01T15:21:36;17.88;;;9.30;;
77298;SDS011;66361;52.034;20.656;2023-03-01T15:25:43;14.35;;;8.70;;
77298;SDS011;66361;52.034;20.656;2023-03-01T15:29:51;15.63;;;8.55;;
77298;SDS011;66361;52.034;20.656;2023-03-01T15:34:10;14.27;;;7.95;;
77298;SDS011;66361;52.034;20.656;2023-03-01T15:38:25;18.25;;;8.48;;
77298;SDS011;66361;52.034;20.656;2023-03-01T15:42:37;14.57;;;8.02;;
77298;SDS011;66361;52.034;20.656;2023-03-01T15:46:44;21.17;;;8.88;;
77298;SDS011;66361;52.034;20.656;2023-03-01T15:50:55;15.68;;;8.20;;
77298;SDS011;66361;52.034;20.656;2023-03-01T15:59:04;15.85;;;9.02;;
77298;SDS011;66361;52.034;20.656;2023-03-01T16:03:10;16.33;;;9.23;;
77298;SDS011;66361;52.034;20.656;2023-03-01T16:07:15;17.95;;;10.10;;
77298;SDS011;66361;52.034;20.656;2023-03-01T16:11:19;21.88;;;10.05;;
77298;SDS011;66361;52.034;20.656;2023-03-01T16:15:31;18.92;;;10.63;;
77298;SDS011;66361;52.034;20.656;2023-03-01T16:19:35;26.63;;;11.50;;
77298;SDS011;66361;52.034;20.656;2023-03-01T16:23:41;21.02;;;11.00;;
77298;SDS011;66361;52.034;20.656;2023-03-01T16:27:44;29.90;;;12.90;;
77298;SDS011;66361;52.034;20.656;2023-03-01T16:31:48;25.15;;;12.15;;
77298;SDS011;66361;52.034;20.656;2023-03-01T16:35:52;39.40;;;19.70;;
77298;SDS011;66361;52.034;20.656;2023-03-01T16:39:56;33.63;;;15.65;;
77298;SDS011;66361;52.034;20.656;2023-03-01T16:44:00;23.20;;;12.82;;
77298;SDS011;66361;52.034;20.656;2023-03-01T16:48:06;23.75;;;12.77;;
77298;SDS011;66361;52.034;20.656;2023-03-01T16:52:09;21.30;;;12.00;;
77298;SDS011;66361;52.034;20.656;2023-03-01T16:56:17;21.42;;;11.60;;
77298;SDS011;66361;52.034;20.656;2023-03-01T17:00:21;25.88;;;13.88;;
77298;SDS011;66361;52.034;20.656;2023-03-01T17:04:25;32.05;;;14.55;;
77298;SDS011;66361;52.034;20.656;2023-03-01T17:08:28;35.40;;;19.08;;
77298;SDS011;66361;52.034;20.656;2023-03-01T17:12:33;33.85;;;16.77;;
77298;SDS011;66361;52.034;20.656;2023-03-01T17:16:40;30.60;;;13.73;;
77298;SDS011;66361;52.034;20.656;2023-03-01T17:20:44;30.92;;;15.32;;
77298;SDS011;66361;52.034;20.656;2023-03-01T17:24:53;27.83;;;14.57;;
77298;SDS011;66361;52.034;20.656;2023-03-01T17:28:58;33.47;;;14.18;;
77298;SDS011;66361;52.034;20.656;2023-03-01T17:33:01;37.33;;;16.30;;
77298;SDS011;66361;52.034;20.656;2023-03-01T17:37:04;28.08;;;14.50;;
77298;SDS011;66361;52.034;20.656;2023-03-01T17:41:07;35.40;;;16.75;;
77298;SDS011;66361;52.034;20.656;2023-03-01T17:45:13;36.95;;;18.52;;
77298;SDS011;66361;52.034;20.656;2023-03-01T17:49:16;44.03;;;21.00;;
77298;SDS011;66361;52.034;20.656;2023-03-01T17:53:22;43.70;;;20.80;;
77298;SDS011;66361;52.034;20.656;2023-03-01T17:57:25;38.97;;;19.23;;
77298;SDS011;66361;52.034;20.656;2023-03-01T18:01:30;44.38;;;19.63;;
77298;SDS011;66361;52.034;20.656;2023-03-01T18:05:35;34.45;;;16.10;;
77298;SDS011;66361;52.034;20.656;2023-03-01T18:09:39;29.77;;;13.45;;
77298;SDS011;66361;52.034;20.656;2023-03-01T18:13:42;29.17;;;18.05;;
77298;SDS011;66361;52.034;20.656;2023-03-01T18:17:47;28.70;;;16.17;;
77298;SDS011;66361;52.034;20.656;2023-03-01T18:21:51;34.35;;;16.35;;
77298;SDS011;66361;52.034;20.656;2023-03-01T18:25:56;31.48;;;15.93;;
77298;SDS011;66361;52.034;20.656;2023-03-01T18:30:01;33.08;;;14.77;;
77298;SDS011;66361;52.034;20.656;2023-03-01T18:34:08;29.98;;;14.75;;
77298;SDS011;66361;52.034;20.656;2023-03-01T18:38:13;27.75;;;14.07;;
77298;SDS011;66361;52.034;20.656;2023-03-01T18:42:22;24.88;;;13.98;;
77298;SDS011;66361;52.034;20.656;2023-03-01T18:46:25;25.92;;;12.68;;
77298;SDS011;66361;52.034;20.656;2023-03-01T18:50:30;21.98;;;10.43;;
77298;SDS011;66361;52.034;20.656;2023-03-01T18:54:33;29.02;;;14.43;;
77298;SDS011;66361;52.034;20.656;2023-03-01T18:58:37;25.15;;;13.55;;
77298;SDS011;66361;52.034;20.656;2023-03-01T19:02:42;27.25;;;12.27;;
77298;SDS011;66361;52.034;20.656;2023-03-01T19:06:47;22.85;;;12.77;;
77298;SDS011;66361;52.034;20.656;2023-03-01T19:10:53;31.77;;;14.88;;
77298;SDS011;66361;52.034;20.656;2023-03-01T19:19:05;33.47;;;15.68;;
77298;SDS011;66361;52.034;20.656;2023-03-01T19:23:11;40.15;;;16.20;;
77298;SDS011;66361;52.034;20.656;2023-03-01T19:27:14;37.50;;;20.50;;
77298;SDS011;66361;52.034;20.656;2023-03-01T19:31:23;42.15;;;22.13;;
77298;SDS011;66361;52.034;20.656;2023-03-01T19:35:29;50.90;;;21.13;;
77298;SDS011;66361;52.034;20.656;2023-03-01T19:39:33;49.47;;;21.92;;
77298;SDS011;66361;52.034;20.656;2023-03-01T19:43:36;53.67;;;24.60;;
77298;SDS011;66361;52.034;20.656;2023-03-01T19:47:39;57.60;;;27.23;;
77298;SDS011;66361;52.034;20.656;2023-03-01T19:51:42;58.33;;;27.13;;
77298;SDS011;66361;52.034;20.656;2023-03-01T19:55:47;53.10;;;24.92;;
77298;SDS011;66361;52.034;20.656;2023-03-01T19:59:53;49.00;;;24.35;;
77298;SDS011;66361;52.034;20.656;2023-03-01T20:03:57;52.65;;;24.13;;
77298;SDS011;66361;52.034;20.656;2023-03-01T20:08:04;47.72;;;23.05;;
77298;SDS011;66361;52.034;20.656;2023-03-01T20:12:10;52.53;;;23.73;;
77298;SDS011;66361;52.034;20.656;2023-03-01T20:16:14;48.72;;;24.25;;
77298;SDS011;66361;52.034;20.656;2023-03-01T20:20:19;48.88;;;24.60;;
77298;SDS011;66361;52.034;20.656;2023-03-01T20:24:21;47.50;;;22.42;;
77298;SDS011;66361;52.034;20.656;2023-03-01T20:28:26;50.15;;;21.73;;
77298;SDS011;66361;52.034;20.656;2023-03-01T20:32:29;45.35;;;23.20;;
77298;SDS011;66361;52.034;20.656;2023-03-01T20:36:32;40.88;;;18.65;;
77298;SDS011;66361;52.034;20.656;2023-03-01T20:40:38;50.58;;;24.40;;
77298;SDS011;66361;52.034;20.656;2023-03-01T20:44:43;48.40;;;23.63;;
77298;SDS011;66361;52.034;20.656;2023-03-01T20:48:46;45.35;;;21.33;;
77298;SDS011;66361;52.034;20.656;2023-03-01T20:52:54;47.88;;;22.35;;
77298;SDS011;66361;52.034;20.656;2023-03-01T20:56:57;45.72;;;22.50;;
77298;SDS011;66361;52.034;20.656;2023-03-01T21:01:02;45.42;;;22.70;;
77298;SDS011;66361;52.034;20.656;2023-03-01T21:05:07;43.78;;;21.02;;
77298;SDS011;66361;52.034;20.656;2023-03-01T21:09:10;37.55;;;20.33;;
77298;SDS011;66361;52.034;20.656;2023-03-01T21:13:14;44.75;;;20.13;;
77298;SDS011;66361;52.034;20.656;2023-03-01T21:17:18;53.22;;;23.05;;
77298;SDS011;66361;52.034;20.656;2023-03-01T21:21:22;49.83;;;22.65;;
77298;SDS011;66361;52.034;20.656;2023-03-01T21:25:25;47.05;;;24.50;;
77298;SDS011;66361;52.034;20.656;2023-03-01T21:29:35;50.53;;;24.98;;
77298;SDS011;66361;52.034;20.656;2023-03-01T21:33:44;50.33;;;25.25;;
77298;SDS011;66361;52.034;20.656;2023-03-01T21:37:48;61.42;;;29.77;;
77298;SDS011;66361;52.034;20.656;2023-03-01T21:42:12;62.28;;;29.10;;
77298;SDS011;66361;52.034;20.656;2023-03-01T21:46:17;64.53;;;29.05;;
77298;SDS011;66361;52.034;20.656;2023-03-01T21:50:24;73.40;;;31.38;;
77298;SDS011;66361;52.034;20.656;2023-03-01T21:54:27;71.05;;;30.67;;
77298;SDS011;66361;52.034;20.656;2023-03-01T21:58:34;64.32;;;30.15;;
77298;SDS011;66361;52.034;20.656;2023-03-01T22:02:39;74.35;;;30.40;;
77298;SDS011;66361;52.034;20.656;2023-03-01T22:06:44;75.70;;;32.25;;
77298;SDS011;66361;52.034;20.656;2023-03-01T22:10:48;77.45;;;32.72;;
77298;SDS011;66361;52.034;20.656;2023-03-01T22:14:51;75.43;;;32.72;;
77298;SDS011;66361;52.034;20.656;2023-03-01T22:18:54;70.32;;;29.67;;
77298;SDS011;66361;52.034;20.656;2023-03-01T22:27:03;75.72;;;35.53;;
77298;SDS011;66361;52.034;20.656;2023-03-01T22:31:06;75.47;;;33.50;;
77298;SDS011;66361;52.034;20.656;2023-03-01T22:35:09;70.82;;;33.67;;
77298;SDS011;66361;52.034;20.656;2023-03-01T22:39:15;72.55;;;37.08;;
77298;SDS011;66361;52.034;20.656;2023-03-01T22:43:21;68.00;;;32.90;;
77298;SDS011;66361;52.034;20.656;2023-03-01T22:47:23;65.90;;;32.50;;
77298;SDS011;66361;52.034;20.656;2023-03-01T22:51:27;70.80;;;30.58;;
77298;SDS011;66361;52.034;20.656;2023-03-01T22:55:34;66.35;;;31.02;;
77298;SDS011;66361;52.034;20.656;2023-03-01T22:59:37;63.75;;;29.80;;
77298;SDS011;66361;52.034;20.656;2023-03-01T23:03:41;56.33;;;26.05;;
77298;SDS011;66361;52.034;20.656;2023-03-01T23:07:44;60.55;;;28.33;;
77298;SDS011;66361;52.034;20.656;2023-03-01T23:11:49;67.03;;;33.70;;
77298;SDS011;66361;52.034;20.656;2023-03-01T23:15:55;79.53;;;36.05;;
77298;SDS011;66361;52.034;20.656;2023-03-01T23:19:59;77.45;;;37.47;;
77298;SDS011;66361;52.034;20.656;2023-03-01T23:24:02;61.10;;;30.85;;
77298;SDS011;66361;52.034;20.656;2023-03-01T23:28:10;56.35;;;29.08;;
77298;SDS011;66361;52.034;20.656;2023-03-01T23:32:17;71.55;;;32.10;;
77298;SDS011;66361;52.034;20.656;2023-03-01T23:36:21;68.22;;;31.70;;
77298;SDS011;66361;52.034;20.656;2023-03-01T23:40:26;64.25;;;31.17;;
77298;SDS011;66361;52.034;20.656;2023-03-01T23:44:33;65.50;;;30.33;;
77298;SDS011;66361;52.034;20.656;2023-03-01T23:48:39;63.60;;;31.77;;
77298;SDS011;66361;52.034;20.656;2023-03-01T23:52:42;62.70;;;29.90;;
77298;SDS011;66361;52.034;20.656;2023-03-01T23:56:45;68.45;;;31.50;;
